createdAt,value
2019-02-26T00:00:27.609Z,1022.00
2019-02-26T00:01:28.765Z,1022.00
2019-02-26T00:02:28.786Z,1022.02
2019-02-26T00:03:28.633Z,1021.99
2019-02-26T00:04:29.597Z,1022.01
2019-02-26T00:05:28.520Z,1022.08
2019-02-26T00:06:28.456Z,1022.05
2019-02-26T00:07:29.861Z,1022.12
2019-02-26T00:08:29.630Z,1022.06
2019-02-26T00:09:28.364Z,1022.04
2019-02-26T00:10:28.996Z,1022.06
2019-02-26T00:11:29.018Z,1022.03
2019-02-26T00:12:28.782Z,1022.06
2019-02-26T00:13:29.455Z,1022.01
2019-02-26T00:14:30.145Z,1021.97
2019-02-26T00:15:31.294Z,1021.96
2019-02-26T00:16:28.445Z,1021.90
2019-02-26T00:17:27.427Z,1021.87
2019-02-26T00:18:27.441Z,1021.85
2019-02-26T00:19:27.407Z,1021.85
2019-02-26T00:20:29.193Z,1021.83
2019-02-26T00:21:29.269Z,1021.80
2019-02-26T00:22:27.374Z,1021.80
2019-02-26T00:23:28.036Z,1021.74
2019-02-26T00:24:30.608Z,1021.64
2019-02-26T00:25:27.341Z,1021.68
2019-02-26T00:26:27.328Z,1021.71
2019-02-26T00:27:28.112Z,1021.65
2019-02-26T00:28:27.332Z,1021.61
2019-02-26T00:29:28.114Z,1021.63
2019-02-26T00:30:27.285Z,1021.66
2019-02-26T00:31:28.851Z,1021.61
2019-02-26T00:32:27.262Z,1021.56
2019-02-26T00:33:28.882Z,1021.55
2019-02-26T00:34:27.274Z,1021.54
2019-02-26T00:35:27.756Z,1021.61
2019-02-26T00:36:29.244Z,1021.62
2019-02-26T00:37:28.427Z,1021.68
2019-02-26T00:38:27.196Z,1021.75
2019-02-26T00:39:29.065Z,1021.74
2019-02-26T00:40:27.181Z,1021.81
2019-02-26T00:41:28.983Z,1021.72
2019-02-26T00:42:28.840Z,1021.79
2019-02-26T00:43:27.916Z,1021.90
2019-02-26T00:44:27.928Z,1021.79
2019-02-26T00:45:29.395Z,1021.82
2019-02-26T00:46:28.498Z,1021.86
2019-02-26T00:47:29.865Z,1021.88
2019-02-26T00:48:27.089Z,1021.84
2019-02-26T00:49:28.608Z,1021.91
2019-02-26T00:50:28.138Z,1021.95
2019-02-26T00:51:27.063Z,1021.98
2019-02-26T00:52:28.323Z,1022.00
2019-02-26T00:53:28.430Z,1021.97
2019-02-26T00:54:29.109Z,1021.98
2019-02-26T00:55:29.351Z,1022.01
2019-02-26T00:56:29.152Z,1022.01
2019-02-26T00:57:27.328Z,1021.97
2019-02-26T00:58:26.980Z,1022.01
2019-02-26T00:59:26.973Z,1021.94
2019-02-26T01:00:28.509Z,1021.97
2019-02-26T01:01:26.971Z,1021.98
2019-02-26T01:02:26.941Z,1022.01
2019-02-26T01:03:26.929Z,1022.01
2019-02-26T01:04:26.917Z,1021.99
2019-02-26T01:05:26.921Z,1021.99
2019-02-26T01:06:28.890Z,1021.98
2019-02-26T01:07:28.260Z,1021.92
2019-02-26T01:08:26.869Z,1021.95
2019-02-26T01:09:27.360Z,1021.95
2019-02-26T01:10:26.880Z,1021.88
2019-02-26T01:11:27.998Z,1021.85
2019-02-26T01:12:26.825Z,1021.81
2019-02-26T01:13:28.465Z,1021.80
2019-02-26T01:14:26.842Z,1021.82
2019-02-26T01:15:26.795Z,1021.80
2019-02-26T01:16:26.783Z,1021.76
2019-02-26T01:17:26.790Z,1021.85
2019-02-26T01:18:28.608Z,1021.81
2019-02-26T01:19:26.778Z,1021.81
2019-02-26T01:20:27.518Z,1021.82
2019-02-26T01:21:28.591Z,1021.78
2019-02-26T01:22:26.731Z,1021.73
2019-02-26T01:23:28.518Z,1021.72
2019-02-26T01:24:28.089Z,1021.70
2019-02-26T01:25:26.691Z,1021.77
2019-02-26T01:26:27.815Z,1021.74
2019-02-26T01:27:26.664Z,1021.69
2019-02-26T01:28:27.431Z,1021.63
2019-02-26T01:29:27.800Z,1021.67
2019-02-26T01:30:28.882Z,1021.61
2019-02-26T01:31:28.755Z,1021.59
2019-02-26T01:32:26.614Z,1021.59
2019-02-26T01:33:29.229Z,1021.51
2019-02-26T01:34:26.638Z,1021.55
2019-02-26T01:35:28.265Z,1021.53
2019-02-26T01:36:26.573Z,1021.53
2019-02-26T01:37:27.790Z,1021.50
2019-02-26T01:38:26.550Z,1021.45
2019-02-26T01:39:26.534Z,1021.46
2019-02-26T01:40:26.549Z,1021.47
2019-02-26T01:41:27.323Z,1021.49
2019-02-26T01:42:27.100Z,1021.44
2019-02-26T01:43:26.511Z,1021.46
2019-02-26T01:44:30.203Z,1021.41
2019-02-26T01:45:29.834Z,1021.43
2019-02-26T01:46:26.476Z,1021.39
2019-02-26T01:47:28.402Z,1021.41
2019-02-26T01:48:26.436Z,1021.35
2019-02-26T01:49:28.393Z,1021.37
2019-02-26T01:50:28.013Z,1021.35
2019-02-26T01:51:28.483Z,1021.34
2019-02-26T01:52:26.397Z,1021.35
2019-02-26T01:53:27.337Z,1021.24
2019-02-26T01:54:28.109Z,1021.29
2019-02-26T01:55:27.649Z,1021.26
2019-02-26T01:56:26.409Z,1021.20
2019-02-26T01:57:27.739Z,1021.21
2019-02-26T01:58:26.339Z,1021.25
2019-02-26T01:59:26.317Z,1021.16
2019-02-26T02:00:26.335Z,1021.16
2019-02-26T02:01:26.321Z,1021.22
2019-02-26T02:02:28.274Z,1021.24
2019-02-26T02:03:27.993Z,1021.24
2019-02-26T02:04:26.270Z,1021.24
2019-02-26T02:05:28.744Z,1021.27
2019-02-26T02:06:26.287Z,1021.29
2019-02-26T02:07:28.102Z,1021.31
2019-02-26T02:08:26.218Z,1021.29
2019-02-26T02:09:26.236Z,1021.32
2019-02-26T02:10:26.204Z,1021.33
2019-02-26T02:11:28.591Z,1021.34
2019-02-26T02:12:29.539Z,1021.33
2019-02-26T02:13:28.709Z,1021.29
2019-02-26T02:14:26.159Z,1021.26
2019-02-26T02:15:26.148Z,1021.21
2019-02-26T02:16:28.537Z,1021.28
2019-02-26T02:17:26.189Z,1021.23
2019-02-26T02:18:28.140Z,1021.25
2019-02-26T02:19:27.616Z,1021.21
2019-02-26T02:20:26.093Z,1021.20
2019-02-26T02:21:28.371Z,1021.17
2019-02-26T02:22:26.069Z,1021.20
2019-02-26T02:23:27.958Z,1021.10
2019-02-26T02:24:26.049Z,1021.10
2019-02-26T02:25:29.020Z,1021.08
2019-02-26T02:26:27.021Z,1021.06
2019-02-26T02:27:28.167Z,1021.09
2019-02-26T02:28:28.102Z,1021.01
2019-02-26T02:29:28.393Z,1021.02
2019-02-26T02:30:30.233Z,1021.08
2019-02-26T02:31:30.380Z,1021.00
2019-02-26T02:32:28.235Z,1021.05
2019-02-26T02:33:27.544Z,1021.01
2019-02-26T02:34:27.036Z,1021.03
2019-02-26T02:35:25.926Z,1021.05
2019-02-26T02:36:26.606Z,1021.04
2019-02-26T02:37:26.929Z,1021.08
2019-02-26T02:38:25.909Z,1021.07
2019-02-26T02:39:26.519Z,1021.02
2019-02-26T02:40:25.875Z,1021.05
2019-02-26T02:41:25.894Z,1021.03
2019-02-26T02:43:33.508Z,1021.07
2019-02-26T02:44:25.825Z,1021.05
2019-02-26T02:45:25.814Z,1021.08
2019-02-26T02:46:25.817Z,1021.01
2019-02-26T02:47:28.557Z,1020.99
2019-02-26T02:48:25.778Z,1020.98
2019-02-26T02:49:25.778Z,1020.99
2019-02-26T02:50:25.766Z,1021.01
2019-02-26T02:51:28.021Z,1020.99
2019-02-26T02:52:27.038Z,1021.00
2019-02-26T02:53:27.397Z,1021.01
2019-02-26T02:54:26.189Z,1021.04
2019-02-26T02:55:25.700Z,1021.00
2019-02-26T02:56:25.722Z,1021.00
2019-02-26T02:57:27.016Z,1021.07
2019-02-26T02:58:26.067Z,1021.08
2019-02-26T02:59:25.689Z,1021.03
2019-02-26T03:00:26.648Z,1021.14
2019-02-26T03:01:28.682Z,1021.07
2019-02-26T03:02:25.631Z,1021.04
2019-02-26T03:03:25.625Z,1021.09
2019-02-26T03:04:28.346Z,1021.07
2019-02-26T03:05:26.593Z,1021.08
2019-02-26T03:06:28.224Z,1021.10
2019-02-26T03:07:27.480Z,1021.15
2019-02-26T03:08:25.556Z,1021.09
2019-02-26T03:09:25.558Z,1021.18
2019-02-26T03:10:28.411Z,1021.18
2019-02-26T03:11:26.524Z,1021.21
2019-02-26T03:12:25.544Z,1021.21
2019-02-26T03:13:27.898Z,1021.25
2019-02-26T03:14:25.501Z,1021.21
2019-02-26T03:15:27.360Z,1021.22
2019-02-26T03:16:27.172Z,1021.22
2019-02-26T03:17:25.494Z,1021.24
2019-02-26T03:18:25.467Z,1021.21
2019-02-26T03:19:25.448Z,1021.26
2019-02-26T03:20:28.718Z,1021.21
2019-02-26T03:21:27.801Z,1021.19
2019-02-26T03:22:25.404Z,1021.20
2019-02-26T03:23:25.411Z,1021.15
2019-02-26T03:24:27.978Z,1021.19
2019-02-26T03:25:27.162Z,1021.15
2019-02-26T03:26:27.458Z,1021.11
2019-02-26T03:27:27.836Z,1021.12
2019-02-26T03:28:25.380Z,1021.09
2019-02-26T03:29:25.329Z,1021.05
2019-02-26T03:30:32.810Z,1021.11
2019-02-26T03:31:30.984Z,1021.07
2019-02-26T03:32:26.298Z,1021.08
2019-02-26T03:33:25.494Z,1021.13
2019-02-26T03:34:25.901Z,1021.16
2019-02-26T03:35:25.263Z,1021.14
2019-02-26T03:36:25.261Z,1021.13
2019-02-26T03:37:25.812Z,1021.11
2019-02-26T03:38:26.873Z,1021.12
2019-02-26T03:39:25.246Z,1021.10
2019-02-26T03:40:27.220Z,1021.11
2019-02-26T03:41:26.422Z,1021.16
2019-02-26T03:42:25.188Z,1021.17
2019-02-26T03:43:25.172Z,1021.22
2019-02-26T03:44:29.579Z,1021.23
2019-02-26T03:45:26.156Z,1021.23
2019-02-26T03:46:25.138Z,1021.20
2019-02-26T03:47:25.129Z,1021.24
2019-02-26T03:48:25.139Z,1021.21
2019-02-26T03:49:27.022Z,1021.20
2019-02-26T03:50:27.120Z,1021.17
2019-02-26T03:51:25.088Z,1021.16
2019-02-26T03:52:25.081Z,1021.16
2019-02-26T03:53:28.028Z,1021.18
2019-02-26T03:54:25.053Z,1021.13
2019-02-26T03:55:25.120Z,1021.15
2019-02-26T03:56:25.034Z,1021.22
2019-02-26T03:57:25.019Z,1021.17
2019-02-26T03:58:25.026Z,1021.17
2019-02-26T03:59:25.008Z,1021.13
2019-02-26T04:00:25.053Z,1021.08
2019-02-26T04:01:24.982Z,1021.02
2019-02-26T04:02:24.966Z,1021.07
2019-02-26T04:03:24.954Z,1021.03
2019-02-26T04:04:26.138Z,1021.08
2019-02-26T04:05:24.943Z,1021.11
2019-02-26T04:06:24.956Z,1021.06
2019-02-26T04:07:26.031Z,1021.15
2019-02-26T04:08:26.888Z,1021.14
2019-02-26T04:09:24.905Z,1021.20
2019-02-26T04:10:24.877Z,1021.20
2019-02-26T04:11:27.607Z,1021.23
2019-02-26T04:12:24.854Z,1021.27
2019-02-26T04:13:24.842Z,1021.29
2019-02-26T04:14:26.231Z,1021.26
2019-02-26T04:15:27.238Z,1021.23
2019-02-26T04:16:24.809Z,1021.27
2019-02-26T04:17:27.922Z,1021.24
2019-02-26T04:18:24.789Z,1021.27
2019-02-26T04:19:26.733Z,1021.21
2019-02-26T04:20:26.937Z,1021.22
2019-02-26T04:21:24.752Z,1021.27
2019-02-26T04:22:26.394Z,1021.22
2019-02-26T04:23:24.781Z,1021.23
2019-02-26T04:24:25.892Z,1021.13
2019-02-26T04:25:27.705Z,1021.24
2019-02-26T04:26:26.451Z,1021.13
2019-02-26T04:27:24.698Z,1021.12
2019-02-26T04:28:27.372Z,1021.12
2019-02-26T04:29:24.687Z,1021.14
2019-02-26T04:30:24.665Z,1021.16
2019-02-26T04:31:24.651Z,1021.20
2019-02-26T04:32:24.648Z,1021.16
2019-02-26T04:33:24.655Z,1021.19
2019-02-26T04:34:24.646Z,1021.16
2019-02-26T04:35:24.602Z,1021.09
2019-02-26T04:36:24.622Z,1021.13
2019-02-26T04:37:25.384Z,1021.10
2019-02-26T04:38:26.705Z,1021.10
2019-02-26T04:39:24.585Z,1021.12
2019-02-26T04:40:27.236Z,1021.08
2019-02-26T04:41:24.578Z,1021.04
2019-02-26T04:42:24.526Z,1021.02
2019-02-26T04:43:25.445Z,1021.03
2019-02-26T04:44:26.846Z,1021.08
2019-02-26T04:45:24.518Z,1021.04
2019-02-26T04:46:25.555Z,1021.03
2019-02-26T04:47:26.763Z,1021.06
2019-02-26T04:48:26.923Z,1021.07
2019-02-26T04:49:27.109Z,1021.03
2019-02-26T04:50:28.590Z,1021.04
2019-02-26T04:51:25.429Z,1021.09
2019-02-26T04:52:24.421Z,1021.10
2019-02-26T04:53:25.804Z,1021.05
2019-02-26T04:54:26.994Z,1021.07
2019-02-26T04:55:28.980Z,1021.07
2019-02-26T04:56:24.379Z,1021.09
2019-02-26T04:57:24.358Z,1021.08
2019-02-26T04:58:24.365Z,1021.07
2019-02-26T04:59:24.341Z,1020.95
2019-02-26T05:00:27.990Z,1020.99
2019-02-26T05:01:25.333Z,1021.02
2019-02-26T05:02:24.311Z,1021.02
2019-02-26T05:03:24.294Z,1020.96
2019-02-26T05:04:24.292Z,1021.01
2019-02-26T05:05:25.891Z,1021.01
2019-02-26T05:06:24.284Z,1021.00
2019-02-26T05:07:24.251Z,1021.06
2019-02-26T05:08:24.260Z,1021.03
2019-02-26T05:09:25.330Z,1021.10
2019-02-26T05:10:26.553Z,1021.02
2019-02-26T05:11:31.689Z,1021.06
2019-02-26T05:12:25.914Z,1021.00
2019-02-26T05:13:25.252Z,1021.07
2019-02-26T05:14:24.179Z,1021.10
2019-02-26T05:15:26.427Z,1021.06
2019-02-26T05:16:26.630Z,1021.07
2019-02-26T05:17:27.252Z,1021.01
2019-02-26T05:18:25.959Z,1020.98
2019-02-26T05:19:24.397Z,1020.94
2019-02-26T05:20:24.116Z,1020.91
2019-02-26T05:21:24.904Z,1020.92
2019-02-26T05:22:25.573Z,1020.94
2019-02-26T05:23:25.897Z,1020.95
2019-02-26T05:24:26.242Z,1020.90
2019-02-26T05:25:24.057Z,1020.93
2019-02-26T05:26:24.046Z,1020.87
2019-02-26T05:27:24.925Z,1020.87
2019-02-26T05:28:24.022Z,1020.87
2019-02-26T05:29:24.012Z,1020.95
2019-02-26T05:30:24.009Z,1020.90
2019-02-26T05:31:23.995Z,1020.94
2019-02-26T05:32:26.930Z,1020.97
2019-02-26T05:33:25.276Z,1020.95
2019-02-26T05:34:25.931Z,1020.93
2019-02-26T05:35:25.298Z,1020.88
2019-02-26T05:36:23.937Z,1020.93
2019-02-26T05:37:23.952Z,1020.95
2019-02-26T05:38:24.589Z,1020.90
2019-02-26T05:39:26.179Z,1020.92
2019-02-26T05:40:23.893Z,1020.88
2019-02-26T05:41:23.897Z,1020.90
2019-02-26T05:42:23.880Z,1020.93
2019-02-26T05:43:26.310Z,1020.94
2019-02-26T05:44:23.858Z,1020.91
2019-02-26T05:45:26.311Z,1020.92
2019-02-26T05:46:25.038Z,1020.95
2019-02-26T05:47:24.696Z,1021.02
2019-02-26T05:48:25.938Z,1020.94
2019-02-26T05:49:23.802Z,1021.01
2019-02-26T05:50:23.807Z,1021.05
2019-02-26T05:51:24.501Z,1021.04
2019-02-26T05:52:25.012Z,1021.08
2019-02-26T05:53:23.776Z,1021.10
2019-02-26T05:54:24.518Z,1021.08
2019-02-26T05:55:25.632Z,1021.04
2019-02-26T05:56:23.728Z,1021.08
2019-02-26T05:57:27.662Z,1021.08
2019-02-26T05:58:24.719Z,1021.14
2019-02-26T05:59:23.698Z,1021.15
2019-02-26T06:00:26.255Z,1021.16
2019-02-26T06:01:25.872Z,1021.13
2019-02-26T06:02:24.625Z,1021.19
2019-02-26T06:03:23.687Z,1021.11
2019-02-26T06:04:23.644Z,1021.03
2019-02-26T06:05:26.042Z,1020.99
2019-02-26T06:06:23.619Z,1020.99
2019-02-26T06:07:27.051Z,1021.01
2019-02-26T06:08:25.884Z,1020.92
2019-02-26T06:09:26.148Z,1020.97
2019-02-26T06:10:24.474Z,1020.89
2019-02-26T06:11:28.285Z,1020.90
2019-02-26T06:12:24.560Z,1020.92
2019-02-26T06:13:23.546Z,1020.92
2019-02-26T06:14:25.487Z,1020.94
2019-02-26T06:15:25.706Z,1020.92
2019-02-26T06:16:24.471Z,1020.90
2019-02-26T06:17:23.504Z,1020.88
2019-02-26T06:18:23.488Z,1020.95
2019-02-26T06:19:23.497Z,1020.93
2019-02-26T06:20:26.016Z,1020.93
2019-02-26T06:21:24.146Z,1020.95
2019-02-26T06:22:26.420Z,1020.93
2019-02-26T06:23:25.404Z,1021.00
2019-02-26T06:24:24.815Z,1020.97
2019-02-26T06:25:24.494Z,1021.05
2019-02-26T06:26:28.000Z,1021.11
2019-02-26T06:27:27.139Z,1021.11
2019-02-26T06:28:23.386Z,1021.12
2019-02-26T06:29:24.715Z,1021.19
2019-02-26T06:30:23.378Z,1021.16
2019-02-26T06:31:24.947Z,1021.17
2019-02-26T06:32:27.511Z,1021.20
2019-02-26T06:33:23.349Z,1021.23
2019-02-26T06:34:23.317Z,1021.23
2019-02-26T06:35:23.326Z,1021.18
2019-02-26T06:36:23.903Z,1021.23
2019-02-26T06:37:23.693Z,1021.22
2019-02-26T06:38:24.125Z,1021.18
2019-02-26T06:39:24.580Z,1021.16
2019-02-26T06:40:23.302Z,1021.14
2019-02-26T06:41:23.242Z,1021.08
2019-02-26T06:42:23.232Z,1021.10
2019-02-26T06:43:23.263Z,1021.04
2019-02-26T06:44:23.220Z,1021.01
2019-02-26T06:45:23.239Z,1021.06
2019-02-26T06:46:23.191Z,1021.01
2019-02-26T06:47:25.930Z,1021.06
2019-02-26T06:48:25.016Z,1020.98
2019-02-26T06:49:24.581Z,1021.02
2019-02-26T06:50:23.165Z,1021.01
2019-02-26T06:51:24.299Z,1020.98
2019-02-26T06:52:23.133Z,1021.03
2019-02-26T06:53:23.147Z,1021.00
2019-02-26T06:54:25.063Z,1021.07
2019-02-26T06:55:23.094Z,1021.08
2019-02-26T06:56:23.079Z,1021.09
2019-02-26T06:57:23.077Z,1021.10
2019-02-26T06:58:23.064Z,1021.10
2019-02-26T06:59:24.729Z,1021.03
2019-02-26T07:00:26.566Z,1020.95
2019-02-26T07:01:23.035Z,1020.96
2019-02-26T07:02:23.036Z,1020.92
2019-02-26T07:03:24.806Z,1020.94
2019-02-26T07:04:23.023Z,1020.96
2019-02-26T07:05:24.500Z,1020.98
2019-02-26T07:06:25.493Z,1020.95
2019-02-26T07:07:22.963Z,1020.92
2019-02-26T07:08:24.204Z,1020.88
2019-02-26T07:09:22.946Z,1020.88
2019-02-26T07:10:26.037Z,1020.83
2019-02-26T07:11:25.614Z,1020.81
2019-02-26T07:12:24.091Z,1020.83
2019-02-26T07:13:22.900Z,1020.83
2019-02-26T07:14:24.835Z,1020.83
2019-02-26T07:15:22.913Z,1020.83
2019-02-26T07:16:22.869Z,1020.90
2019-02-26T07:17:22.861Z,1020.95
2019-02-26T07:18:22.846Z,1020.86
2019-02-26T07:19:22.837Z,1020.84
2019-02-26T07:20:22.858Z,1020.85
2019-02-26T07:21:22.823Z,1020.86
2019-02-26T07:22:22.802Z,1020.92
2019-02-26T07:23:22.802Z,1020.94
2019-02-26T07:24:24.487Z,1020.98
2019-02-26T07:25:22.772Z,1021.01
2019-02-26T07:26:23.116Z,1021.04
2019-02-26T07:27:22.749Z,1021.02
2019-02-26T07:28:24.511Z,1020.95
2019-02-26T07:29:22.737Z,1020.98
2019-02-26T07:30:22.725Z,1020.97
2019-02-26T07:31:24.341Z,1020.97
2019-02-26T07:32:24.550Z,1021.03
2019-02-26T07:33:22.690Z,1020.99
2019-02-26T07:34:23.288Z,1021.06
2019-02-26T07:35:22.687Z,1021.08
2019-02-26T07:36:23.753Z,1021.06
2019-02-26T07:37:22.664Z,1021.10
2019-02-26T07:38:23.019Z,1021.10
2019-02-26T07:39:22.815Z,1021.18
2019-02-26T07:40:22.616Z,1021.18
2019-02-26T07:41:23.147Z,1021.22
2019-02-26T07:42:22.600Z,1021.13
2019-02-26T07:43:22.701Z,1021.15
2019-02-26T07:44:24.150Z,1021.09
2019-02-26T07:45:24.798Z,1021.06
2019-02-26T07:46:22.566Z,1021.08
2019-02-26T07:47:24.276Z,1021.05
2019-02-26T07:48:23.844Z,1021.08
2019-02-26T07:49:22.512Z,1021.03
2019-02-26T07:50:22.502Z,1021.01
2019-02-26T07:51:22.507Z,1021.01
2019-02-26T07:52:24.203Z,1020.97
2019-02-26T07:53:24.569Z,1021.03
2019-02-26T07:54:22.469Z,1020.96
2019-02-26T07:55:22.471Z,1021.01
2019-02-26T07:56:23.090Z,1021.01
2019-02-26T07:57:23.027Z,1021.01
2019-02-26T07:58:22.421Z,1021.07
2019-02-26T07:59:27.592Z,1021.02
2019-02-26T08:00:23.398Z,1021.08
2019-02-26T08:01:22.391Z,1021.07
2019-02-26T08:02:22.385Z,1021.02
2019-02-26T08:03:24.776Z,1020.95
2019-02-26T08:04:22.398Z,1020.93
2019-02-26T08:05:25.716Z,1020.87
2019-02-26T08:06:22.350Z,1020.88
2019-02-26T08:07:24.376Z,1020.90
2019-02-26T08:08:22.314Z,1020.92
2019-02-26T08:09:23.663Z,1020.87
2019-02-26T08:10:22.292Z,1020.92
2019-02-26T08:11:22.980Z,1020.88
2019-02-26T08:12:22.282Z,1020.86
2019-02-26T08:13:24.385Z,1020.93
2019-02-26T08:14:23.372Z,1020.92
2019-02-26T08:15:22.229Z,1020.92
2019-02-26T08:16:23.603Z,1020.94
2019-02-26T08:17:22.226Z,1020.83
2019-02-26T08:18:22.210Z,1020.85
2019-02-26T08:19:22.270Z,1020.79
2019-02-26T08:20:22.180Z,1020.84
2019-02-26T08:21:24.712Z,1020.83
2019-02-26T08:22:22.161Z,1020.88
2019-02-26T08:23:23.887Z,1020.86
2019-02-26T08:24:24.516Z,1020.90
2019-02-26T08:25:22.130Z,1020.85
2019-02-26T08:26:23.871Z,1020.79
2019-02-26T08:27:22.094Z,1020.83
2019-02-26T08:28:23.043Z,1020.81
2019-02-26T08:29:23.952Z,1020.79
2019-02-26T08:30:24.203Z,1020.83
2019-02-26T08:31:23.278Z,1020.81
2019-02-26T08:32:23.956Z,1020.83
2019-02-26T08:33:22.036Z,1020.81
2019-02-26T08:34:22.033Z,1020.85
2019-02-26T08:35:22.032Z,1020.82
2019-02-26T08:36:22.006Z,1020.90
2019-02-26T08:37:21.997Z,1020.81
2019-02-26T08:38:21.998Z,1020.75
2019-02-26T08:39:21.967Z,1020.76
2019-02-26T08:40:21.970Z,1020.80
2019-02-26T08:41:21.942Z,1020.66
2019-02-26T08:42:21.932Z,1020.71
2019-02-26T08:43:21.924Z,1020.76
2019-02-26T08:44:21.916Z,1020.75
2019-02-26T08:45:23.605Z,1020.68
2019-02-26T08:46:21.901Z,1020.73
2019-02-26T08:47:23.502Z,1020.71
2019-02-26T08:48:22.840Z,1020.65
2019-02-26T08:49:22.556Z,1020.67
2019-02-26T08:50:21.893Z,1020.69
2019-02-26T08:51:21.846Z,1020.62
2019-02-26T08:52:24.243Z,1020.69
2019-02-26T08:53:22.580Z,1020.74
2019-02-26T08:54:23.829Z,1020.67
2019-02-26T08:55:24.502Z,1020.70
2019-02-26T08:56:23.899Z,1020.72
2019-02-26T08:57:21.769Z,1020.68
2019-02-26T08:58:23.478Z,1020.63
2019-02-26T08:59:21.750Z,1020.70
2019-02-26T09:00:21.739Z,1020.69
2019-02-26T09:01:21.744Z,1020.72
2019-02-26T09:02:21.715Z,1020.66
2019-02-26T09:03:21.706Z,1020.64
2019-02-26T09:04:23.757Z,1020.67
2019-02-26T09:05:23.954Z,1020.69
2019-02-26T09:06:21.693Z,1020.63
2019-02-26T09:07:23.583Z,1020.69
2019-02-26T09:08:21.679Z,1020.61
2019-02-26T09:09:22.953Z,1020.67
2019-02-26T09:10:23.373Z,1020.64
2019-02-26T09:11:21.619Z,1020.67
2019-02-26T09:12:22.397Z,1020.62
2019-02-26T09:13:21.624Z,1020.75
2019-02-26T09:14:21.590Z,1020.61
2019-02-26T09:15:21.580Z,1020.66
2019-02-26T09:16:22.294Z,1020.59
2019-02-26T09:17:24.380Z,1020.72
2019-02-26T09:18:24.784Z,1020.75
2019-02-26T09:19:22.690Z,1020.83
2019-02-26T09:20:21.544Z,1020.83
2019-02-26T09:21:22.868Z,1020.88
2019-02-26T09:22:23.383Z,1020.97
2019-02-26T09:23:23.534Z,1021.01
2019-02-26T09:24:21.475Z,1021.04
2019-02-26T09:25:25.566Z,1021.02
2019-02-26T09:26:21.482Z,1021.08
2019-02-26T09:27:21.490Z,1021.14
2019-02-26T09:28:22.415Z,1021.12
2019-02-26T09:29:22.243Z,1021.00
2019-02-26T09:30:21.418Z,1021.05
2019-02-26T09:31:21.423Z,1021.07
2019-02-26T09:32:21.536Z,1021.04
2019-02-26T09:33:21.388Z,1021.10
2019-02-26T09:34:21.370Z,1021.13
2019-02-26T09:35:25.353Z,1021.12
2019-02-26T09:36:23.621Z,1021.18
2019-02-26T09:37:21.354Z,1021.10
2019-02-26T09:38:22.978Z,1021.11
2019-02-26T09:39:21.343Z,1021.12
2019-02-26T09:40:23.691Z,1021.07
2019-02-26T09:41:21.569Z,1021.10
2019-02-26T09:42:23.234Z,1021.10
2019-02-26T09:43:22.544Z,1021.15
2019-02-26T09:44:21.262Z,1021.16
2019-02-26T09:45:25.400Z,1021.12
2019-02-26T09:46:21.238Z,1021.07
2019-02-26T09:47:23.384Z,1021.10
2019-02-26T09:48:21.987Z,1021.14
2019-02-26T09:49:21.208Z,1021.15
2019-02-26T09:50:22.619Z,1021.17
2019-02-26T09:51:21.201Z,1021.10
2019-02-26T09:52:25.170Z,1021.11
2019-02-26T09:53:22.176Z,1021.08
2019-02-26T09:54:22.571Z,1021.07
2019-02-26T09:55:21.151Z,1021.11
2019-02-26T09:56:21.124Z,1021.07
2019-02-26T09:57:23.388Z,1021.09
2019-02-26T09:58:23.019Z,1021.08
2019-02-26T09:59:21.093Z,1021.02
2019-02-26T10:00:23.662Z,1021.06
2019-02-26T10:01:21.069Z,1021.05
2019-02-26T10:02:21.946Z,1020.98
2019-02-26T10:03:21.100Z,1021.00
2019-02-26T10:04:22.095Z,1021.04
2019-02-26T10:05:21.031Z,1021.08
2019-02-26T10:06:21.673Z,1021.04
2019-02-26T10:07:21.030Z,1021.03
2019-02-26T10:08:22.332Z,1021.05
2019-02-26T10:09:20.985Z,1021.07
2019-02-26T10:10:21.010Z,1021.07
2019-02-26T10:11:23.031Z,1021.07
2019-02-26T10:12:20.968Z,1021.09
2019-02-26T10:13:22.766Z,1021.01
2019-02-26T10:14:20.930Z,1021.04
2019-02-26T10:15:20.920Z,1021.03
2019-02-26T10:16:21.714Z,1020.99
2019-02-26T10:17:21.485Z,1021.02
2019-02-26T10:18:21.502Z,1021.01
2019-02-26T10:19:20.877Z,1021.05
2019-02-26T10:20:24.777Z,1021.06
2019-02-26T10:21:20.862Z,1021.07
2019-02-26T10:22:20.875Z,1021.10
2019-02-26T10:23:21.698Z,1021.14
2019-02-26T10:24:22.981Z,1021.07
2019-02-26T10:25:23.081Z,1021.12
2019-02-26T10:26:20.827Z,1021.14
2019-02-26T10:27:20.806Z,1021.15
2019-02-26T10:28:21.545Z,1021.16
2019-02-26T10:29:20.768Z,1021.20
2019-02-26T10:30:20.784Z,1021.20
2019-02-26T10:31:24.142Z,1021.24
2019-02-26T10:32:20.760Z,1021.27
2019-02-26T10:33:21.144Z,1021.25
2019-02-26T10:34:22.440Z,1021.28
2019-02-26T10:35:25.595Z,1021.24
2019-02-26T10:36:21.692Z,1021.23
2019-02-26T10:37:20.711Z,1021.25
2019-02-26T10:38:20.664Z,1021.29
2019-02-26T10:39:23.166Z,1021.29
2019-02-26T10:40:20.660Z,1021.28
2019-02-26T10:41:21.258Z,1021.31
2019-02-26T10:42:20.655Z,1021.30
2019-02-26T10:43:20.634Z,1021.26
2019-02-26T10:44:20.604Z,1021.28
2019-02-26T10:45:20.599Z,1021.27
2019-02-26T10:46:20.600Z,1021.24
2019-02-26T10:47:22.764Z,1021.24
2019-02-26T10:48:22.777Z,1021.27
2019-02-26T10:49:20.557Z,1021.23
2019-02-26T10:50:22.488Z,1021.21
2019-02-26T10:51:26.124Z,1021.17
2019-02-26T10:52:22.095Z,1021.17
2019-02-26T10:53:22.663Z,1021.13
2019-02-26T10:54:20.491Z,1021.17
2019-02-26T10:55:21.875Z,1021.21
2019-02-26T10:56:20.473Z,1021.19
2019-02-26T10:57:20.502Z,1021.17
2019-02-26T10:58:20.454Z,1021.20
2019-02-26T10:59:20.445Z,1021.17
2019-02-26T11:00:22.583Z,1021.16
2019-02-26T11:01:23.575Z,1021.19
2019-02-26T11:02:23.093Z,1021.20
2019-02-26T11:03:20.403Z,1021.20
2019-02-26T11:04:20.382Z,1021.16
2019-02-26T11:05:25.686Z,1021.13
2019-02-26T11:06:21.363Z,1021.12
2019-02-26T11:07:20.677Z,1021.15
2019-02-26T11:08:23.067Z,1021.10
2019-02-26T11:09:25.350Z,1021.09
2019-02-26T11:10:23.219Z,1021.02
2019-02-26T11:11:20.307Z,1021.05
2019-02-26T11:12:22.697Z,1021.07
2019-02-26T11:13:23.056Z,1021.08
2019-02-26T11:14:21.303Z,1021.00
2019-02-26T11:15:22.037Z,1021.06
2019-02-26T11:16:24.826Z,1021.10
2019-02-26T11:17:23.497Z,1021.00
2019-02-26T11:18:21.087Z,1021.03
2019-02-26T11:19:20.225Z,1021.06
2019-02-26T11:20:21.862Z,1021.06
2019-02-26T11:21:20.226Z,1021.02
2019-02-26T11:22:22.618Z,1020.98
2019-02-26T11:23:30.004Z,1020.93
2019-02-26T11:24:23.458Z,1020.92
2019-02-26T11:25:22.298Z,1020.88
2019-02-26T11:26:20.142Z,1020.87
2019-02-26T11:27:20.134Z,1020.94
2019-02-26T11:28:20.127Z,1020.96
2019-02-26T11:29:20.133Z,1020.95
2019-02-26T11:30:21.116Z,1020.91
2019-02-26T11:31:25.010Z,1020.87
2019-02-26T11:32:21.078Z,1020.86
2019-02-26T11:33:20.698Z,1020.87
2019-02-26T11:34:20.099Z,1020.79
2019-02-26T11:35:22.026Z,1020.79
2019-02-26T11:36:20.079Z,1020.80
2019-02-26T11:37:20.672Z,1020.74
2019-02-26T11:38:21.984Z,1020.83
2019-02-26T11:39:20.002Z,1020.79
2019-02-26T11:40:22.159Z,1020.85
2019-02-26T11:41:19.978Z,1020.77
2019-02-26T11:42:21.208Z,1020.74
2019-02-26T11:43:23.014Z,1020.76
2019-02-26T11:44:22.753Z,1020.67
2019-02-26T11:45:19.948Z,1020.66
2019-02-26T11:46:20.751Z,1020.63
2019-02-26T11:47:20.637Z,1020.67
2019-02-26T11:48:21.299Z,1020.59
2019-02-26T11:49:21.671Z,1020.66
2019-02-26T11:50:19.878Z,1020.58
2019-02-26T11:51:20.085Z,1020.58
2019-02-26T11:52:20.265Z,1020.60
2019-02-26T11:53:19.845Z,1020.57
2019-02-26T11:54:19.853Z,1020.54
2019-02-26T11:55:19.834Z,1020.56
2019-02-26T11:56:22.998Z,1020.60
2019-02-26T11:57:19.828Z,1020.56
2019-02-26T11:58:21.827Z,1020.55
2019-02-26T11:59:19.799Z,1020.58
2019-02-26T12:00:25.374Z,1020.60
2019-02-26T12:01:20.758Z,1020.57
2019-02-26T12:02:26.653Z,1020.57
2019-02-26T12:03:24.968Z,1020.51
2019-02-26T12:04:19.768Z,1020.52
2019-02-26T12:05:19.715Z,1020.52
2019-02-26T12:06:19.712Z,1020.48